Time;durP1;ratioP1;P1;durP2;ratioP2;P2;SDS_P1;SDS_P2;PMS_P1;PMS_P2;Temp;Humidity;BMP_temperature;BMP_pressure;BME280_temperature;BME280_humidity;BME280_pressure;Samples;Min_cycle;Max_cycle;Signal;HPM_P1;HPM_P2
2022/12/19 00:00:28;;;;;;;34.58;13.10;;;;;;;-6.96;100.00;99928.06;2618983;28;20052;-85
2022/12/19 00:02:04;;;;;;;30.08;12.45;;;;;;;-6.97;100.00;99928.84;2621367;28;20048;-82
2022/12/19 00:03:19;;;;;;;51.70;17.20;;;;;;;-6.83;100.00;99926.31;2622717;28;20414;-82
2022/12/19 00:04:35;;;;;;;48.13;14.73;;;;;;;-6.83;100.00;99918.69;2623476;28;20054;-81
2022/12/19 00:05:50;;;;;;;42.00;16.33;;;;;;;-7.04;100.00;99920.69;2621403;28;20544;-82
2022/12/19 00:07:06;;;;;;;51.58;16.55;;;;;;;-6.82;100.00;99915.34;2621767;28;20516;-81
2022/12/19 00:08:22;;;;;;;48.92;15.95;;;;;;;-6.90;100.00;99903.75;2620249;28;20490;-82
2022/12/19 00:09:37;;;;;;;46.47;15.93;;;;;;;-7.01;100.00;99895.44;2621781;28;20052;-83
2022/12/19 00:10:58;;;;;;;42.88;15.35;;;;;;;-6.85;100.00;99885.47;2621414;28;20053;-81
2022/12/19 00:12:13;;;;;;;43.22;15.15;;;;;;;-6.79;100.00;99871.34;2619806;28;20155;-81
2022/12/19 00:13:30;;;;;;;45.17;14.52;;;;;;;-6.65;100.00;99869.69;2621697;28;20057;-81
2022/12/19 00:14:46;;;;;;;33.45;12.50;;;;;;;-6.96;100.00;99877.13;2619485;28;20441;-85
2022/12/19 00:16:09;;;;;;;57.38;17.88;;;;;;;-6.88;100.00;99885.28;2620332;28;20068;-83
2022/12/19 00:17:24;;;;;;;32.88;12.20;;;;;;;-6.64;100.00;99913.09;2621527;28;20119;-82
2022/12/19 00:18:41;;;;;;;46.15;14.77;;;;;;;-6.72;100.00;99917.69;2623312;28;20069;-80
2022/12/19 00:19:57;;;;;;;41.63;14.43;;;;;;;-6.48;100.00;99903.91;2619664;28;20048;-80
2022/12/19 00:21:15;;;;;;;34.38;12.52;;;;;;;-6.97;100.00;99897.38;2620200;28;20048;-83
2022/12/19 00:22:30;;;;;;;45.63;15.93;;;;;;;-6.68;100.00;99898.41;2620415;28;20048;-82
2022/12/19 00:23:47;;;;;;;41.22;14.73;;;;;;;-6.71;100.00;99911.81;2620165;28;20060;-82
2022/12/19 00:25:02;;;;;;;52.25;14.82;;;;;;;-6.77;100.00;99919.06;2621973;28;20114;-80
2022/12/19 00:26:21;;;;;;;50.00;15.80;;;;;;;-6.48;100.00;99924.28;2622879;28;20040;-81
2022/12/19 00:27:37;;;;;;;42.92;14.82;;;;;;;-6.52;100.00;99913.88;2621313;28;20063;-80
2022/12/19 00:28:58;;;;;;;46.38;15.32;;;;;;;-6.77;100.00;99918.16;2621152;28;20540;-84
2022/12/19 00:30:13;;;;;;;46.55;15.80;;;;;;;-6.75;100.00;99922.59;2620031;28;20497;-80
2022/12/19 00:31:32;;;;;;;43.25;16.27;;;;;;;-6.55;100.00;99920.47;2621003;28;20098;-80
2022/12/19 00:32:47;;;;;;;46.33;14.93;;;;;;;-6.67;100.00;99928.19;2622248;28;20075;-83
2022/12/19 00:34:03;;;;;;;40.85;15.38;;;;;;;-6.77;100.00;99920.72;2622706;28;20431;-80
2022/12/19 00:35:19;;;;;;;56.13;17.50;;;;;;;-6.65;100.00;99926.59;2621028;28;20490;-89
2022/12/19 00:36:34;;;;;;;49.42;16.48;;;;;;;-6.52;100.00;99921.53;2619540;28;20109;-80
2022/12/19 00:37:50;;;;;;;35.05;14.52;;;;;;;-7.03;100.00;99917.38;2622600;28;20045;-81
2022/12/19 00:39:06;;;;;;;46.88;15.68;;;;;;;-6.54;100.00;99919.69;2620560;28;20065;-82
2022/12/19 00:40:21;;;;;;;33.10;11.35;;;;;;;-6.95;100.00;99927.28;2621830;28;20088;-82
2022/12/19 00:41:39;;;;;;;44.47;14.38;;;;;;;-6.92;100.00;99926.56;2622342;28;20070;-83
2022/12/19 00:42:54;;;;;;;42.30;12.30;;;;;;;-6.96;100.00;99922.97;2619536;28;20590;-81
2022/12/19 00:44:12;;;;;;;38.88;15.05;;;;;;;-7.03;100.00;99922.47;2619423;28;20075;-87
2022/12/19 00:45:28;;;;;;;51.85;15.13;;;;;;;-6.60;100.00;99914.19;2622943;28;20341;-83
2022/12/19 00:46:43;;;;;;;39.92;14.95;;;;;;;-6.68;100.00;99914.56;2620262;28;20062;-82
2022/12/19 00:47:59;;;;;;;53.55;17.05;;;;;;;-6.64;100.00;99914.78;2622712;28;20074;-82
2022/12/19 00:49:15;;;;;;;42.90;15.05;;;;;;;-6.55;100.00;99911.13;2622145;28;20178;-82
2022/12/19 00:50:31;;;;;;;46.75;15.95;;;;;;;-6.52;100.00;99918.09;2619684;28;20494;-83
2022/12/19 00:51:46;;;;;;;47.58;17.90;;;;;;;-6.59;100.00;99927.03;2620524;28;20044;-82
2022/12/19 00:53:02;;;;;;;47.10;17.98;;;;;;;-6.85;100.00;99913.47;2622300;28;20081;-82
2022/12/19 00:54:17;;;;;;;38.50;13.10;;;;;;;-6.65;100.00;99900.28;2621570;28;20101;-82
2022/12/19 00:55:37;;;;;;;41.78;13.70;;;;;;;-6.67;100.00;99895.06;2621814;28;20052;-83
2022/12/19 00:56:52;;;;;;;47.63;15.98;;;;;;;-6.55;100.00;99887.34;2621124;28;20051;-82
2022/12/19 00:58:08;;;;;;;39.50;14.18;;;;;;;-6.59;100.00;99867.53;2620110;28;20532;-82
2022/12/19 00:59:23;;;;;;;43.97;14.60;;;;;;;-6.59;100.00;99873.53;2619599;28;20166;-82
2022/12/19 01:00:39;;;;;;;40.78;15.35;;;;;;;-6.60;100.00;99866.66;2620846;28;20506;-82
2022/12/19 01:01:54;;;;;;;47.28;15.93;;;;;;;-6.48;100.00;99865.69;2621333;28;20056;-82
2022/12/19 01:03:10;;;;;;;48.15;14.85;;;;;;;-6.45;100.00;99871.84;2621943;28;20505;-82
2022/12/19 01:04:26;;;;;;;47.75;17.80;;;;;;;-6.60;100.00;99881.94;2620748;28;20055;-81
2022/12/19 01:05:41;;;;;;;46.95;14.95;;;;;;;-6.69;100.00;99887.34;2620131;28;20052;-81
2022/12/19 01:06:58;;;;;;;50.88;18.23;;;;;;;-6.69;100.00;99889.00;2611194;28;20407;-80
2022/12/19 01:08:13;;;;;;;39.80;13.52;;;;;;;-6.71;100.00;99885.47;2614067;28;20071;-81
2022/12/19 01:09:30;;;;;;;47.60;14.55;;;;;;;-6.59;100.00;99887.91;2618624;28;20106;-83
2022/12/19 01:10:47;;;;;;;40.13;13.40;;;;;;;-6.49;100.00;99885.19;2622504;28;20113;-81
2022/12/19 01:13:39;;;;;;;32.58;10.68;;;;;;;-6.71;100.00;99890.56;2622096;28;20063;-81
2022/12/19 01:14:56;;;;;;;35.65;13.10;;;;;;;-6.68;100.00;99880.56;2622346;28;20044;-81
2022/12/19 01:16:12;;;;;;;47.35;15.30;;;;;;;-6.49;100.00;99881.75;2619820;28;20051;-83
2022/12/19 01:17:28;;;;;;;48.00;16.67;;;;;;;-6.69;100.00;99876.25;2620867;28;20685;-81
2022/12/19 01:18:44;;;;;;;45.42;14.65;;;;;;;-6.62;100.00;99877.53;2619976;28;20086;-81
2022/12/19 01:19:59;;;;;;;43.25;14.13;;;;;;;-6.72;100.00;99887.13;2620466;28;20060;-83
2022/12/19 01:21:15;;;;;;;47.97;17.35;;;;;;;-6.67;100.00;99874.69;2619622;28;20059;-83
2022/12/19 01:22:30;;;;;;;43.15;14.48;;;;;;;-6.76;100.00;99877.53;2621099;28;20566;-82
2022/12/19 01:23:46;;;;;;;48.78;15.50;;;;;;;-6.67;100.00;99870.50;2621120;28;20418;-82
2022/12/19 01:25:02;;;;;;;42.45;15.70;;;;;;;-6.58;100.00;99871.84;2621035;28;20117;-81
2022/12/19 01:26:17;;;;;;;52.85;16.45;;;;;;;-6.43;100.00;99862.63;2621556;28;20487;-81
2022/12/19 01:27:33;;;;;;;48.58;16.20;;;;;;;-6.29;100.00;99862.59;2622502;28;20040;-81
2022/12/19 01:28:49;;;;;;;41.70;15.90;;;;;;;-6.17;100.00;99865.91;2620932;28;20086;-81
2022/12/19 01:30:06;;;;;;;38.20;14.45;;;;;;;-6.09;100.00;99861.28;2620686;28;20056;-82
2022/12/19 01:31:22;;;;;;;45.53;14.85;;;;;;;-6.22;100.00;99859.66;2619010;28;20057;-85
2022/12/19 01:32:37;;;;;;;50.03;16.27;;;;;;;-5.95;100.00;99862.97;2621579;28;20087;-81
2022/12/19 01:33:53;;;;;;;51.22;16.67;;;;;;;-5.87;100.00;99863.44;2620277;28;20045;-80
2022/12/19 01:35:09;;;;;;;44.97;15.35;;;;;;;-6.08;100.00;99865.59;2621453;28;20106;-82
2022/12/19 01:36:24;;;;;;;47.65;15.60;;;;;;;-5.98;100.00;99872.13;2619641;28;20514;-83
2022/12/19 01:37:40;;;;;;;47.15;16.05;;;;;;;-5.95;100.00;99854.47;2619807;28;20082;-83
2022/12/19 01:38:56;;;;;;;47.80;15.05;;;;;;;-5.92;100.00;99864.84;2622185;28;20067;-83
2022/12/19 01:40:13;;;;;;;46.42;16.58;;;;;;;-5.84;100.00;99863.66;2621432;28;20086;-82
2022/12/19 01:41:29;;;;;;;48.85;16.90;;;;;;;-5.63;100.00;99859.75;2623649;28;20048;-81
2022/12/19 01:42:44;;;;;;;41.90;14.57;;;;;;;-5.87;100.00;99862.56;2623393;28;20060;-81
2022/12/19 01:44:05;;;;;;;52.65;16.60;;;;;;;-5.75;100.00;99853.13;2622528;28;20075;-82
2022/12/19 01:45:32;;;;;;;49.63;16.20;;;;;;;-5.89;100.00;99854.81;2623956;28;20125;-81
2022/12/19 01:46:51;;;;;;;41.22;14.07;;;;;;;-5.86;100.00;99843.94;2621066;28;20411;-81
2022/12/19 01:48:19;;;;;;;50.88;16.02;;;;;;;-5.75;100.00;99839.47;2621639;28;20062;-81
2022/12/19 01:49:36;;;;;;;57.40;17.73;;;;;;;-5.55;100.00;99851.75;2622368;28;20066;-86
2022/12/19 01:51:06;;;;;;;48.60;16.15;;;;;;;-5.54;100.00;99848.41;2622875;28;20076;-81
2022/12/19 01:52:22;;;;;;;44.05;15.30;;;;;;;-5.55;100.00;99851.75;2621833;28;20063;-85
2022/12/19 01:53:43;;;;;;;45.30;16.25;;;;;;;-5.44;100.00;99844.72;2623445;28;20495;-80
2022/12/19 01:54:58;;;;;;;45.10;16.17;;;;;;;-5.60;100.00;99847.16;2624191;28;20044;-81
2022/12/19 01:56:14;;;;;;;46.80;15.88;;;;;;;-5.54;100.00;99830.56;2621052;28;20083;-82
2022/12/19 01:57:30;;;;;;;48.70;16.25;;;;;;;-5.58;100.00;99830.28;2623045;28;20056;-82
2022/12/19 01:58:47;;;;;;;42.72;15.60;;;;;;;-5.63;100.00;99832.56;2623920;28;20056;-85
2022/12/19 02:00:08;;;;;;;49.00;15.55;;;;;;;-5.55;100.00;99815.13;2622767;28;20076;-81
2022/12/19 02:01:24;;;;;;;47.88;16.15;;;;;;;-5.60;100.00;99812.31;2622929;28;20150;-81
2022/12/19 02:02:55;;;;;;;46.70;16.58;;;;;;;-5.61;100.00;99807.13;2622716;28;20479;-81
2022/12/19 02:04:12;;;;;;;43.20;15.40;;;;;;;-5.68;100.00;99809.31;2622040;28;20047;-82
2022/12/19 02:05:29;;;;;;;41.30;14.23;;;;;;;-5.69;100.00;99816.91;2622328;28;20048;-81
2022/12/19 02:06:45;;;;;;;47.10;15.50;;;;;;;-5.51;100.00;99813.66;2622153;28;20060;-83
2022/12/19 02:08:02;;;;;;;44.03;15.35;;;;;;;-5.68;100.00;99811.00;2620771;28;20090;-81
2022/12/19 02:09:18;;;;;;;43.40;13.68;;;;;;;-5.55;100.00;99813.47;2621238;28;20071;-83
2022/12/19 02:10:34;;;;;;;42.72;16.00;;;;;;;-5.66;100.00;99801.75;2620358;28;20174;-81
2022/12/19 02:11:50;;;;;;;41.45;13.68;;;;;;;-5.79;100.00;99812.91;2622552;28;20052;-82
2022/12/19 02:13:06;;;;;;;37.78;12.40;;;;;;;-5.76;100.00;99824.97;2622030;28;20074;-81
2022/12/19 02:14:22;;;;;;;48.33;15.13;;;;;;;-5.73;100.00;99832.78;2623197;28;20106;-81
2022/12/19 02:16:01;;;;;;;43.92;15.48;;;;;;;-5.67;100.00;99836.59;2621698;28;20056;-81
2022/12/19 02:17:51;;;;;;;42.78;14.70;;;;;;;-5.45;100.00;99847.19;2616066;28;20779;-82
2022/12/19 02:19:30;;;;;;;40.45;14.88;;;;;;;-5.63;100.00;99841.91;2622805;28;20482;-81
2022/12/19 02:20:57;;;;;;;44.95;13.50;;;;;;;-5.34;100.00;99832.50;2624081;28;20044;-83
2022/12/19 02:22:16;;;;;;;35.42;13.00;;;;;;;-5.56;100.00;99846.56;2622701;28;20333;-84
2022/12/19 02:23:46;;;;;;;39.80;13.02;;;;;;;-5.40;100.00;99850.91;2622915;28;20047;-81
2022/12/19 02:25:27;;;;;;;42.05;15.27;;;;;;;-5.53;100.00;99844.19;2621718;28;20486;-84
2022/12/19 02:26:57;;;;;;;38.28;13.00;;;;;;;-5.43;100.00;99841.38;2622742;28;20122;-81
2022/12/19 02:28:40;;;;;;;40.13;12.95;;;;;;;-5.47;100.00;99831.78;2621936;28;20502;-81
2022/12/19 02:30:07;;;;;;;37.80;14.43;;;;;;;-5.51;100.00;99831.53;2622630;28;20071;-83
2022/12/19 02:31:38;;;;;;;30.33;12.75;;;;;;;-5.56;100.00;99836.34;2622207;28;20375;-81
2022/12/19 02:33:16;;;;;;;39.03;13.25;;;;;;;-5.62;100.00;99829.22;2623448;28;20053;-82
2022/12/19 02:34:49;;;;;;;36.20;13.32;;;;;;;-5.60;100.00;99824.22;2622352;28;20052;-81
2022/12/19 02:36:16;;;;;;;46.63;13.77;;;;;;;-5.48;100.00;99826.59;2623311;28;20044;-80
2022/12/19 02:37:43;;;;;;;45.85;15.20;;;;;;;-5.55;100.00;99827.91;2620876;28;20439;-81
2022/12/19 02:39:06;;;;;;;40.55;13.45;;;;;;;-5.45;100.00;99822.56;2621366;28;20044;-81
2022/12/19 02:40:35;;;;;;;37.80;14.10;;;;;;;-5.62;100.00;99816.44;2622474;28;20274;-83
2022/12/19 02:41:55;;;;;;;36.15;13.10;;;;;;;-5.71;100.00;99824.44;2621200;28;20052;-82
2022/12/19 02:43:14;;;;;;;43.70;14.60;;;;;;;-5.53;100.00;99809.34;2623656;28;20043;-80
2022/12/19 02:44:36;;;;;;;38.20;12.90;;;;;;;-5.41;100.00;99810.84;2620742;28;20052;-82
2022/12/19 02:45:52;;;;;;;38.38;13.43;;;;;;;-5.54;100.00;99809.25;2621569;28;20510;-84
2022/12/19 02:47:08;;;;;;;37.92;13.98;;;;;;;-5.39;100.00;99797.38;2620366;28;20466;-84
2022/12/19 02:48:24;;;;;;;42.97;14.20;;;;;;;-5.34;100.00;99795.09;2621997;28;20503;-81
2022/12/19 02:49:40;;;;;;;41.25;14.52;;;;;;;-5.41;100.00;99795.53;2623502;28;20057;-81
2022/12/19 02:50:56;;;;;;;40.63;13.65;;;;;;;-5.46;100.00;99796.94;2621190;28;20363;-81
2022/12/19 02:52:18;;;;;;;41.97;14.65;;;;;;;-5.47;100.00;99793.50;2620364;28;20060;-84
2022/12/19 02:53:36;;;;;;;39.85;14.63;;;;;;;-5.28;100.00;99790.34;2621381;28;20047;-81
2022/12/19 02:54:56;;;;;;;41.40;14.18;;;;;;;-5.31;100.00;99789.28;2623022;28;20052;-84
2022/12/19 02:56:34;;;;;;;39.45;14.05;;;;;;;-5.57;100.00;99789.56;2622491;28;20494;-81
2022/12/19 02:58:02;;;;;;;36.65;13.18;;;;;;;-5.33;100.00;99790.88;2620820;28;20082;-82
2022/12/19 02:59:47;;;;;;;39.58;13.82;;;;;;;-5.23;100.00;99798.28;2620427;28;20054;-85
2022/12/19 03:01:16;;;;;;;37.60;12.55;;;;;;;-5.04;100.00;99789.09;2620790;28;20869;-83
2022/12/19 03:02:39;;;;;;;36.00;12.20;;;;;;;-5.03;100.00;99788.31;2624037;28;20056;-81
2022/12/19 03:04:03;;;;;;;45.70;14.00;;;;;;;-4.91;100.00;99790.66;2622015;28;20036;-81
2022/12/19 03:05:56;;;;;;;42.45;13.85;;;;;;;-5.03;100.00;99791.75;2621209;28;20590;-81
2022/12/19 03:07:20;;;;;;;;;;;;;;;-5.44;100.00;99793.69;2609797;28;20075;-81
2022/12/19 03:08:54;;;;;;;27.30;10.75;;;;;;;-5.25;100.00;99784.53;2621160;28;19928;-82
2022/12/19 03:10:27;;;;;;;36.65;12.60;;;;;;;-5.20;100.00;99787.34;2621305;28;20059;-84
2022/12/19 03:11:48;;;;;;;39.35;12.73;;;;;;;-5.11;100.00;99792.97;2621941;28;20051;-84
2022/12/19 03:13:25;;;;;;;45.72;13.20;;;;;;;-5.16;100.00;99784.19;2621344;28;20053;-81
2022/12/19 03:14:41;;;;;;;43.40;13.68;;;;;;;-5.13;100.00;99784.34;2623840;28;20075;-82
2022/12/19 03:15:58;;;;;;;41.10;13.20;;;;;;;-5.13;100.00;99784.34;2620330;28;20058;-81
2022/12/19 03:17:14;;;;;;;33.75;13.25;;;;;;;-5.08;100.00;99782.06;2623483;28;20490;-82
2022/12/19 03:18:32;;;;;;;41.92;13.80;;;;;;;-4.98;100.00;99790.31;2622745;28;20371;-82
2022/12/19 03:19:48;;;;;;;44.60;13.43;;;;;;;-5.05;100.00;99790.75;2620506;28;20593;-82
2022/12/19 03:21:26;;;;;;;49.63;15.15;;;;;;;-5.02;100.00;99788.41;2620659;28;20139;-81
2022/12/19 03:22:42;;;;;;;45.65;14.07;;;;;;;-4.91;100.00;99785.53;2622204;28;20053;-81
2022/12/19 03:23:58;;;;;;;42.95;14.10;;;;;;;-5.07;100.00;99789.78;2622036;28;20048;-81
2022/12/19 03:25:13;;;;;;;41.00;13.98;;;;;;;-5.31;100.00;99785.06;2623401;28;20056;-82
2022/12/19 03:26:36;;;;;;;39.53;13.55;;;;;;;-5.15;100.00;99783.41;2621718;28;20130;-82
2022/12/19 03:27:53;;;;;;;45.65;14.25;;;;;;;-5.11;100.00;99782.75;2620669;28;20128;-82
2022/12/19 03:29:35;;;;;;;43.30;14.00;;;;;;;-5.02;100.00;99785.84;2620735;28;20076;-82
2022/12/19 03:30:52;;;;;;;35.53;13.35;;;;;;;-4.94;100.00;99775.16;2604377;28;20555;-82
2022/12/19 03:32:15;;;;;;;41.38;13.50;;;;;;;-5.12;100.00;99789.53;2620998;28;20414;-85
2022/12/19 03:33:32;;;;;;;41.45;14.40;;;;;;;-5.11;100.00;99787.88;2621233;28;20114;-82
2022/12/19 03:34:58;;;;;;;42.72;13.55;;;;;;;-4.97;100.00;99784.41;2620660;28;20155;-82
2022/12/19 03:36:19;;;;;;;43.70;14.32;;;;;;;-4.95;100.00;99781.97;2622505;28;20046;-84
2022/12/19 03:37:39;;;;;;;43.35;13.50;;;;;;;-4.84;100.00;99782.56;2620970;28;20048;-82
2022/12/19 03:38:56;;;;;;;36.47;14.20;;;;;;;-4.80;100.00;99781.91;2620284;28;20044;-82
2022/12/19 03:40:17;;;;;;;42.33;14.07;;;;;;;-4.72;100.00;99780.69;2621458;28;20099;-82
2022/12/19 03:43:11;;;;;;;38.95;14.35;;;;;;;-4.88;100.00;99775.53;2622786;28;20052;-82
2022/12/19 03:44:31;;;;;;;41.95;14.52;;;;;;;-4.72;100.00;99778.13;2621847;28;20045;-81
2022/12/19 03:45:59;;;;;;;46.88;15.13;;;;;;;-4.72;100.00;99783.22;2620963;28;20561;-86
2022/12/19 03:47:23;;;;;;;37.22;13.57;;;;;;;-4.73;100.00;99786.59;2620978;28;20052;-81
2022/12/19 03:48:49;;;;;;;35.63;12.68;;;;;;;-5.01;100.00;99792.72;2621629;28;20467;-81
2022/12/19 03:50:06;;;;;;;42.75;14.45;;;;;;;-4.93;100.00;99792.25;2622217;28;20528;-81
2022/12/19 03:51:40;;;;;;;47.40;15.20;;;;;;;-5.05;100.00;99792.44;2620774;28;20491;-81
2022/12/19 03:53:04;;;;;;;41.17;13.73;;;;;;;-4.92;100.00;99786.34;2619030;28;20103;-80
2022/12/19 03:54:25;;;;;;;43.13;14.15;;;;;;;-4.95;100.00;99792.19;2621737;28;20079;-81
2022/12/19 03:55:48;;;;;;;41.38;13.55;;;;;;;-4.90;100.00;99793.31;2622019;28;20083;-81
2022/12/19 03:57:14;;;;;;;46.30;14.05;;;;;;;-4.94;100.00;99796.50;2623794;28;20063;-81
2022/12/19 03:58:35;;;;;;;40.75;15.00;;;;;;;-4.74;100.00;99797.59;2620465;28;20055;-81
2022/12/19 03:59:58;;;;;;;38.03;13.93;;;;;;;-4.63;100.00;99797.28;2621436;28;20063;-81
2022/12/19 04:01:15;;;;;;;38.97;14.85;;;;;;;-4.57;100.00;99805.31;2621056;28;20052;-81
2022/12/19 04:02:34;;;;;;;43.88;13.88;;;;;;;-4.53;100.00;99804.69;2621782;28;20052;-81
2022/12/19 04:03:51;;;;;;;44.80;14.27;;;;;;;-4.74;100.00;99799.25;2619584;28;20044;-84
2022/12/19 04:05:09;;;;;;;40.25;13.88;;;;;;;-4.63;100.00;99802.41;2619986;28;20127;-81
2022/12/19 04:06:28;;;;;;;41.13;14.68;;;;;;;-4.57;100.00;99802.75;2621047;28;20080;-81
2022/12/19 04:07:45;;;;;;;44.40;14.07;;;;;;;-4.60;100.00;99807.72;2623671;28;20633;-81
2022/12/19 04:09:01;;;;;;;39.92;14.30;;;;;;;-4.59;100.00;99814.56;2621629;28;20048;-82
2022/12/19 04:10:20;;;;;;;39.35;14.70;;;;;;;-4.54;100.00;99813.13;2620590;28;20479;-82
2022/12/19 04:11:44;;;;;;;35.38;13.85;;;;;;;-4.52;100.00;99810.69;2622626;28;20153;-81
2022/12/19 04:13:04;;;;;;;45.28;15.48;;;;;;;-4.48;100.00;99810.03;2623025;28;20050;-81
2022/12/19 04:14:29;;;;;;;41.25;13.77;;;;;;;-4.49;100.00;99805.72;2621673;28;20057;-81
2022/12/19 04:15:55;;;;;;;41.10;14.25;;;;;;;-4.55;100.00;99803.72;2620736;28;20056;-81
2022/12/19 04:17:15;;;;;;;41.83;14.52;;;;;;;-4.44;100.00;99802.63;2623077;28;20514;-82
2022/12/19 04:18:32;;;;;;;38.00;14.57;;;;;;;-4.50;100.00;99796.31;2620001;28;20572;-83
2022/12/19 04:20:04;;;;;;;40.80;15.32;;;;;;;-4.42;100.00;99790.81;2621987;28;20040;-87
2022/12/19 04:21:30;;;;;;;34.38;13.02;;;;;;;-4.44;100.00;99788.94;2621011;28;20048;-83
2022/12/19 04:23:08;;;;;;;39.72;12.88;;;;;;;-4.60;100.00;99775.34;2621526;28;20487;-82
2022/12/19 04:24:33;;;;;;;45.78;13.27;;;;;;;-4.60;100.00;99770.22;2620352;28;20045;-84
2022/12/19 04:25:54;;;;;;;39.70;13.77;;;;;;;-4.59;100.00;99756.66;2622871;28;20045;-81
2022/12/19 04:27:12;;;;;;;44.08;15.45;;;;;;;-4.58;100.00;99753.31;2622987;28;20056;-82
2022/12/19 04:28:37;;;;;;;46.78;14.75;;;;;;;-4.62;100.00;99761.59;2619771;28;20059;-82
2022/12/19 04:29:56;;;;;;;39.75;14.05;;;;;;;-4.54;100.00;99760.34;2619353;28;20062;-82
2022/12/19 04:31:16;;;;;;;39.35;14.13;;;;;;;-4.63;100.00;99770.06;2620374;28;20052;-82
2022/12/19 04:32:35;;;;;;;42.03;15.25;;;;;;;-4.60;100.00;99777.03;2621490;28;20048;-82
2022/12/19 04:33:51;;;;;;;49.50;16.05;;;;;;;-4.66;100.00;99771.56;2619925;28;20048;-82
2022/12/19 04:35:06;;;;;;;43.08;15.55;;;;;;;-4.67;100.00;99786.03;2622419;28;20183;-82
2022/12/19 04:36:25;;;;;;;42.78;14.88;;;;;;;-4.70;100.00;99788.41;2622907;28;20044;-81
2022/12/19 04:37:41;;;;;;;45.30;16.27;;;;;;;-4.84;100.00;99787.66;2620890;28;20084;-82
2022/12/19 04:38:57;;;;;;;43.38;14.63;;;;;;;-4.69;100.00;99783.38;2620709;28;20040;-85
2022/12/19 04:40:12;;;;;;;52.03;16.75;;;;;;;-4.80;100.00;99781.91;2620880;28;20140;-84
2022/12/19 04:41:28;;;;;;;44.30;16.30;;;;;;;-5.02;100.00;99788.41;2620814;28;20040;-88
2022/12/19 04:42:44;;;;;;;44.08;15.50;;;;;;;-5.01;100.00;99786.72;2619956;28;20163;-82
2022/12/19 04:43:59;;;;;;;40.90;14.77;;;;;;;-4.85;100.00;99778.25;2620644;28;20052;-84
2022/12/19 04:45:15;;;;;;;45.65;16.02;;;;;;;-4.71;100.00;99776.44;2622186;28;20142;-83
2022/12/19 04:46:31;;;;;;;42.83;15.38;;;;;;;-4.74;100.00;99774.59;2620535;28;20049;-83
2022/12/19 04:47:46;;;;;;;47.72;16.80;;;;;;;-4.75;100.00;99772.84;2619467;28;20075;-82
2022/12/19 04:49:02;;;;;;;37.00;14.43;;;;;;;-5.01;100.00;99781.59;2620283;28;20604;-82
2022/12/19 04:50:17;;;;;;;43.75;14.68;;;;;;;-4.97;100.00;99776.75;2622660;28;20048;-83
2022/12/19 04:51:33;;;;;;;41.08;15.52;;;;;;;-5.09;100.00;99782.88;2622694;28;20059;-83
2022/12/19 04:52:49;;;;;;;41.55;15.00;;;;;;;-5.40;100.00;99771.78;2622409;28;20608;-82
2022/12/19 04:54:05;;;;;;;39.83;13.93;;;;;;;-5.17;100.00;99767.09;2620441;28;20063;-86
2022/12/19 04:55:20;;;;;;;35.92;13.98;;;;;;;-4.93;100.00;99767.59;2621947;28;20518;-84
2022/12/19 04:56:35;;;;;;;36.92;13.18;;;;;;;-5.20;100.00;99774.56;2623181;28;20066;-82
2022/12/19 04:57:51;;;;;;;45.42;16.05;;;;;;;-4.99;100.00;99764.69;2620675;28;20056;-82
2022/12/19 04:59:07;;;;;;;40.03;12.57;;;;;;;-4.92;100.00;99769.34;2619809;28;20482;-82
2022/12/19 05:00:22;;;;;;;40.45;13.18;;;;;;;-4.93;100.00;99765.03;2619863;28;20140;-83
2022/12/19 05:01:38;;;;;;;34.03;12.52;;;;;;;-4.95;100.00;99764.09;2619044;28;20041;-83
2022/12/19 05:02:54;;;;;;;42.47;14.23;;;;;;;-5.06;100.00;99760.91;2620457;28;20055;-83
2022/12/19 05:04:10;;;;;;;38.72;14.15;;;;;;;-4.96;100.00;99768.28;2620906;28;20419;-89
2022/12/19 05:05:25;;;;;;;44.45;14.85;;;;;;;-4.87;100.00;99767.06;2620657;28;20160;-83
2022/12/19 05:06:41;;;;;;;44.90;14.85;;;;;;;-4.82;100.00;99765.63;2620829;28;20410;-82
2022/12/19 05:07:57;;;;;;;36.53;12.70;;;;;;;-5.27;100.00;99766.59;2621817;28;20048;-83
2022/12/19 05:09:12;;;;;;;38.88;12.18;;;;;;;-5.39;100.00;99764.19;2621603;28;20049;-82
2022/12/19 05:10:28;;;;;;;35.88;12.80;;;;;;;-5.17;100.00;99764.53;2622245;28;20113;-82
2022/12/19 05:11:43;;;;;;;38.35;13.00;;;;;;;-5.27;100.00;99775.91;2622890;28;20101;-82
2022/12/19 05:12:59;;;;;;;42.38;15.07;;;;;;;-5.14;100.00;99772.38;2621051;28;20314;-82
2022/12/19 05:14:15;;;;;;;40.63;15.52;;;;;;;-4.77;100.00;99764.19;2621101;28;20055;-84
2022/12/19 05:15:30;;;;;;;38.28;11.48;;;;;;;-4.80;100.00;99769.13;2621937;28;20517;-83
2022/12/19 05:16:46;;;;;;;44.90;15.38;;;;;;;-4.85;100.00;99765.47;2622100;28;20048;-83
2022/12/19 05:18:01;;;;;;;43.00;14.38;;;;;;;-4.96;100.00;99768.28;2622334;28;20288;-85
2022/12/19 05:19:17;;;;;;;44.28;15.80;;;;;;;-5.02;100.00;99762.88;2622622;28;20044;-82
2022/12/19 05:20:35;;;;;;;41.83;14.32;;;;;;;-4.82;100.00;99756.31;2622941;28;20045;-83
2022/12/19 05:21:51;;;;;;;43.80;15.18;;;;;;;-4.74;100.00;99756.72;2623508;28;20049;-82
2022/12/19 05:23:06;;;;;;;43.30;14.38;;;;;;;-4.80;100.00;99758.06;2622263;28;20047;-82
2022/12/19 05:24:22;;;;;;;46.88;15.38;;;;;;;-4.88;100.00;99761.06;2622823;28;20052;-82
2022/12/19 05:25:37;;;;;;;45.28;14.90;;;;;;;-4.91;100.00;99758.34;2622444;28;20048;-82
2022/12/19 05:26:53;;;;;;;46.10;15.05;;;;;;;-4.73;100.00;99757.59;2622184;28;20067;-82
2022/12/19 05:28:09;;;;;;;38.75;14.13;;;;;;;-4.77;100.00;99756.53;2624692;28;20529;-86
2022/12/19 05:29:24;;;;;;;41.88;13.98;;;;;;;-5.07;100.00;99771.91;2622228;28;20059;-86
2022/12/19 05:30:40;;;;;;;41.70;13.75;;;;;;;-4.91;100.00;99770.22;2622199;28;20048;-83
2022/12/19 05:31:55;;;;;;;32.08;14.18;;;;;;;-5.12;100.00;99775.91;2621243;28;20135;-83
2022/12/19 05:33:11;;;;;;;43.00;15.85;;;;;;;-5.11;100.00;99777.66;2622719;28;20049;-85
2022/12/19 05:34:27;;;;;;;42.00;15.15;;;;;;;-4.96;100.00;99767.41;2621448;28;20048;-84
2022/12/19 05:35:43;;;;;;;43.90;14.73;;;;;;;-5.27;100.00;99776.78;2622333;28;20491;-83
2022/12/19 05:36:58;;;;;;;34.10;14.63;;;;;;;-5.27;100.00;99781.91;2622484;28;20040;-83
2022/12/19 05:38:14;;;;;;;43.20;14.63;;;;;;;-5.19;100.00;99790.00;2621726;28;20120;-83
2022/12/19 05:39:30;;;;;;;37.85;14.63;;;;;;;-5.25;100.00;99784.53;2622479;28;20480;-89
2022/12/19 05:40:45;;;;;;;29.52;11.02;;;;;;;-5.31;100.00;99779.06;2620802;28;20044;-84
2022/12/19 05:42:01;;;;;;;41.10;15.05;;;;;;;-5.33;100.00;99790.88;2624099;28;20059;-82
2022/12/19 05:43:16;;;;;;;49.17;14.82;;;;;;;-5.31;100.00;99785.06;2621982;28;20052;-84
2022/12/19 05:44:32;;;;;;;36.90;13.27;;;;;;;-5.32;100.00;99783.28;2622034;28;20040;-89
2022/12/19 05:45:47;;;;;;;36.92;11.90;;;;;;;-5.41;100.00;99800.66;2622309;28;20076;-86
2022/12/19 05:47:03;;;;;;;45.95;13.65;;;;;;;-5.37;100.00;99788.94;2622114;28;20048;-82
2022/12/19 05:48:19;;;;;;;38.00;14.02;;;;;;;-5.61;100.00;99787.59;2622578;28;20131;-81
2022/12/19 05:49:34;;;;;;;33.28;12.82;;;;;;;-5.17;100.00;99782.41;2621872;28;20110;-84
2022/12/19 05:50:50;;;;;;;38.80;13.32;;;;;;;-4.84;100.00;99780.00;2621502;28;20134;-83
2022/12/19 05:52:05;;;;;;;37.42;14.60;;;;;;;-4.90;100.00;99780.53;2623719;28;20494;-83
2022/12/19 05:53:21;;;;;;;39.28;13.82;;;;;;;-5.05;100.00;99785.66;2624679;28;20074;-82
2022/12/19 05:54:37;;;;;;;46.13;13.73;;;;;;;-5.32;100.00;99792.63;2621150;28;20478;-82
2022/12/19 05:56:12;;;;;;;34.50;13.57;;;;;;;-5.29;100.00;99796.25;2623108;28;20052;-81
2022/12/19 05:57:27;;;;;;;15.05;6.22;;;;;;;-5.48;100.00;99809.63;2622717;28;20153;-85
2022/12/19 05:58:44;;;;;;;35.88;13.98;;;;;;;-5.55;100.00;99818.59;2621928;28;20048;-87
2022/12/19 05:59:59;;;;;;;39.78;12.43;;;;;;;-5.32;100.00;99811.38;2622835;28;20152;-83
2022/12/19 06:01:21;;;;;;;44.78;16.23;;;;;;;-5.32;100.00;99801.16;2621167;28;20080;-83
2022/12/19 06:02:36;;;;;;;28.85;11.05;;;;;;;-5.39;100.00;99810.13;2622665;28;20103;-83
2022/12/19 06:03:54;;;;;;;39.17;14.02;;;;;;;-5.41;100.00;99810.84;2621533;28;20040;-84